createdAt,value
2023-04-02T00:00:20.966Z,3.33
2023-04-02T00:02:57.345Z,3.00
2023-04-02T00:05:51.823Z,3.38
2023-04-02T00:08:24.258Z,3.05
2023-04-02T00:10:54.746Z,2.97
2023-04-02T00:13:32.764Z,2.70
2023-04-02T00:16:03.833Z,3.10
2023-04-02T00:18:33.497Z,3.75
2023-04-02T00:21:10.474Z,3.40
2023-04-02T00:23:41.216Z,3.70
2023-04-02T00:26:22.985Z,5.00
2023-04-02T00:28:51.249Z,4.22
2023-04-02T00:31:21.668Z,4.88
2023-04-02T00:33:50.768Z,4.10
2023-04-02T00:36:21.949Z,3.75
2023-04-02T00:38:50.394Z,3.50
2023-04-02T00:41:23.284Z,3.22
2023-04-02T00:43:53.822Z,4.18
2023-04-02T00:46:30.061Z,3.65
2023-04-02T00:49:02.075Z,3.45
2023-04-02T00:51:33.504Z,3.72
2023-04-02T00:54:03.965Z,4.25
2023-04-02T00:56:36.736Z,4.22
2023-04-02T00:59:05.484Z,4.75
2023-04-02T01:01:42.528Z,4.55
2023-04-02T01:04:29.151Z,3.85
2023-04-02T01:06:58.329Z,2.85
2023-04-02T01:09:42.165Z,2.78
2023-04-02T01:12:33.063Z,2.80
2023-04-02T01:15:07.053Z,1.98
2023-04-02T01:17:54.507Z,2.30
2023-04-02T01:20:50.008Z,2.08
2023-04-02T01:23:25.632Z,1.70
2023-04-02T01:26:02.555Z,2.10
2023-04-02T01:28:38.331Z,2.05
2023-04-02T01:31:07.812Z,2.03
2023-04-02T01:33:36.636Z,1.75
2023-04-02T01:36:11.688Z,2.00
2023-04-02T01:38:47.151Z,1.42
2023-04-02T01:41:23.195Z,1.60
2023-04-02T01:43:55.408Z,1.67
2023-04-02T01:46:32.796Z,2.20
2023-04-02T01:49:04.823Z,1.77
2023-04-02T01:51:34.478Z,2.10
2023-04-02T01:54:07.024Z,1.90
2023-04-02T01:56:35.604Z,1.73
2023-04-02T01:59:05.974Z,1.70
2023-04-02T02:01:44.351Z,1.80
2023-04-02T02:04:14.718Z,2.00
2023-04-02T02:06:43.120Z,1.48
2023-04-02T02:09:18.544Z,1.27
2023-04-02T02:14:17.892Z,1.77
2023-04-02T02:16:47.876Z,2.30
2023-04-02T02:19:25.389Z,2.20
2023-04-02T02:21:54.875Z,2.30
2023-04-02T02:24:27.610Z,1.73
2023-04-02T02:27:07.243Z,2.03
2023-04-02T02:29:39.504Z,2.80
2023-04-02T02:32:11.862Z,3.53
2023-04-02T02:34:47.842Z,4.35
2023-04-02T02:37:20.111Z,4.57
2023-04-02T02:39:54.947Z,4.70
2023-04-02T02:42:27.288Z,5.07
2023-04-02T02:44:57.460Z,4.88
2023-04-02T02:47:29.478Z,5.78
2023-04-02T02:50:02.544Z,4.95
2023-04-02T02:52:34.107Z,4.47
2023-04-02T02:55:11.296Z,4.47
2023-04-02T02:57:50.794Z,3.78
2023-04-02T03:00:20.933Z,3.78
2023-04-02T03:02:51.302Z,2.45
2023-04-02T03:05:25.060Z,2.42
2023-04-02T03:10:34.963Z,2.42
2023-04-02T03:13:10.930Z,2.33
2023-04-02T03:15:44.366Z,1.90
2023-04-02T03:18:18.234Z,2.22
2023-04-02T03:20:50.605Z,2.00
2023-04-02T03:23:23.343Z,1.70
2023-04-02T03:25:57.214Z,1.85
2023-04-02T03:28:31.204Z,2.00
2023-04-02T03:31:03.322Z,1.90
2023-04-02T03:33:36.920Z,2.00
2023-04-02T03:36:19.693Z,2.63
2023-04-02T03:38:52.966Z,3.38
2023-04-02T03:41:27.112Z,4.13
2023-04-02T03:43:59.063Z,4.20
2023-04-02T03:46:32.658Z,3.83
2023-04-02T03:49:08.461Z,4.38
2023-04-02T03:51:40.551Z,4.38
2023-04-02T03:54:13.138Z,4.10
2023-04-02T03:56:41.406Z,4.18
2023-04-02T03:59:21.608Z,3.38
2023-04-02T04:04:22.298Z,2.50
2023-04-02T04:06:52.586Z,2.85
2023-04-02T04:09:26.174Z,2.88
2023-04-02T04:12:01.321Z,2.92
2023-04-02T04:14:33.109Z,2.67
2023-04-02T04:17:05.707Z,3.35
2023-04-02T04:19:45.566Z,3.10
2023-04-02T04:22:18.861Z,3.53
2023-04-02T04:24:50.117Z,4.47
2023-04-02T04:27:34.598Z,3.90
2023-04-02T04:30:07.025Z,3.42
2023-04-02T04:32:50.040Z,3.42
2023-04-02T04:35:28.554Z,4.32
2023-04-02T04:38:03.843Z,3.50
2023-04-02T04:40:35.871Z,3.47
2023-04-02T04:43:07.910Z,3.83
2023-04-02T04:45:42.779Z,3.67
2023-04-02T04:48:16.592Z,3.25
2023-04-02T04:50:51.643Z,3.22
2023-04-02T04:53:23.291Z,3.53
2023-04-02T04:55:55.287Z,3.00
2023-04-02T04:58:28.056Z,3.15
2023-04-02T05:01:04.014Z,2.60
2023-04-02T05:03:36.705Z,3.03
2023-04-02T05:06:12.215Z,2.92
2023-04-02T05:08:46.411Z,2.55
2023-04-02T05:11:21.948Z,2.67
2023-04-02T05:13:53.294Z,3.13
2023-04-02T05:16:27.444Z,2.70
2023-04-02T05:19:04.872Z,2.60
2023-04-02T05:21:41.952Z,2.15
2023-04-02T05:24:40.779Z,2.60
2023-04-02T05:27:20.007Z,2.22
2023-04-02T05:29:54.262Z,2.47
2023-04-02T05:32:27.631Z,2.15
2023-04-02T05:34:57.634Z,2.10
2023-04-02T05:37:30.407Z,2.15
2023-04-02T05:40:06.636Z,2.73
2023-04-02T05:42:37.625Z,3.65
2023-04-02T05:45:21.515Z,3.67
2023-04-02T05:47:51.734Z,4.28
2023-04-02T05:50:30.414Z,4.05
2023-04-02T05:53:07.802Z,4.57
2023-04-02T05:55:42.723Z,5.90
2023-04-02T06:01:02.625Z,4.20
2023-04-02T06:03:39.467Z,4.80
2023-04-02T06:06:18.519Z,5.68
2023-04-02T06:08:53.348Z,5.50
2023-04-02T06:11:26.415Z,5.13
2023-04-02T06:13:54.591Z,4.85
2023-04-02T06:16:28.089Z,5.57
2023-04-02T06:18:57.430Z,4.85
2023-04-02T06:21:26.590Z,5.38
2023-04-02T06:24:03.241Z,4.40
2023-04-02T06:26:36.223Z,4.35
2023-04-02T06:29:08.574Z,4.28
2023-04-02T06:31:39.960Z,4.10
2023-04-02T06:34:16.440Z,3.92
2023-04-02T06:36:52.090Z,3.45
2023-04-02T06:39:23.192Z,3.95
2023-04-02T06:41:58.861Z,2.83
2023-04-02T06:44:38.456Z,2.33
2023-04-02T06:47:35.164Z,3.63
2023-04-02T06:50:12.599Z,2.97
2023-04-02T06:52:46.824Z,3.38
2023-04-02T06:55:33.947Z,3.00
2023-04-02T06:58:02.288Z,2.88
2023-04-02T07:00:36.447Z,2.50
2023-04-02T07:03:08.682Z,2.60
2023-04-02T07:05:37.196Z,2.50
2023-04-02T07:08:05.727Z,2.78
2023-04-02T07:10:35.617Z,2.42
2023-04-02T07:13:03.516Z,2.13
2023-04-02T07:15:31.595Z,2.63
2023-04-02T07:18:00.331Z,2.65
2023-04-02T07:20:31.924Z,2.17
2023-04-02T07:23:03.702Z,1.97
2023-04-02T07:25:31.954Z,2.17
2023-04-02T07:28:01.670Z,1.90
2023-04-02T07:30:29.581Z,2.85
2023-04-02T07:32:57.520Z,2.38
2023-04-02T07:35:26.832Z,2.53
2023-04-02T07:37:54.682Z,2.67
2023-04-02T07:40:24.297Z,2.75
2023-04-02T07:42:52.761Z,2.28
2023-04-02T07:45:22.027Z,2.72
2023-04-02T07:47:49.902Z,2.53
2023-04-02T07:50:17.957Z,2.55
2023-04-02T07:52:46.305Z,2.75
2023-04-02T07:55:16.929Z,2.90
2023-04-02T07:57:50.302Z,2.10
2023-04-02T08:00:19.600Z,3.13
2023-04-02T08:02:49.222Z,2.70
2023-04-02T08:05:17.977Z,4.05
2023-04-02T08:07:53.025Z,3.55
2023-04-02T08:10:21.129Z,3.28
2023-04-02T08:12:49.554Z,2.88
2023-04-02T08:15:18.100Z,2.33
2023-04-02T08:17:48.209Z,2.35
2023-04-02T08:20:18.072Z,1.90
2023-04-02T08:22:46.289Z,2.50
2023-04-02T08:25:14.620Z,2.95
2023-04-02T08:27:42.650Z,2.15
2023-04-02T08:30:13.926Z,2.35
2023-04-02T08:32:41.987Z,2.40
2023-04-02T08:35:13.315Z,3.00
2023-04-02T08:37:41.389Z,2.72
2023-04-02T08:40:19.612Z,3.13
2023-04-02T08:42:54.811Z,2.65
2023-04-02T08:47:56.130Z,2.63
2023-04-02T08:50:32.810Z,2.80
2023-04-02T08:53:01.465Z,3.40
2023-04-02T08:55:37.189Z,4.68
2023-04-02T08:58:14.367Z,3.47
2023-04-02T09:00:45.220Z,3.92
2023-04-02T09:03:18.674Z,3.25
2023-04-02T09:05:50.550Z,4.47
2023-04-02T09:08:21.764Z,3.88
2023-04-02T09:10:54.390Z,2.17
2023-04-02T09:13:25.591Z,2.95
2023-04-02T09:15:59.552Z,2.50
2023-04-02T09:18:31.879Z,2.25
2023-04-02T09:21:04.181Z,2.47
2023-04-02T09:23:32.178Z,2.58
2023-04-02T09:26:04.505Z,2.97
2023-04-02T09:28:33.109Z,2.30
2023-04-02T09:31:07.467Z,2.17
2023-04-02T09:33:43.131Z,2.67
2023-04-02T09:36:27.028Z,2.70
2023-04-02T09:39:00.288Z,2.35
2023-04-02T09:41:30.910Z,2.38
2023-04-02T09:44:21.101Z,2.08
2023-04-02T09:46:52.906Z,2.08
2023-04-02T09:49:26.692Z,2.47
2023-04-02T09:52:27.686Z,1.90
2023-04-02T09:55:21.884Z,2.28
2023-04-02T09:57:51.976Z,1.70
2023-04-02T10:03:04.509Z,2.40
2023-04-02T10:08:18.309Z,2.92
2023-04-02T10:10:49.564Z,2.10
2023-04-02T10:13:23.925Z,2.60
2023-04-02T10:15:56.902Z,1.90
2023-04-02T10:18:34.303Z,2.30
2023-04-02T10:21:04.291Z,1.80
2023-04-02T10:23:33.966Z,2.30
2023-04-02T10:26:17.806Z,2.63
2023-04-02T10:29:00.872Z,2.85
2023-04-02T10:31:33.510Z,2.95
2023-04-02T10:34:06.163Z,2.40
2023-04-02T10:36:48.294Z,1.77
2023-04-02T10:39:21.081Z,1.70
2023-04-02T10:41:57.334Z,2.00
2023-04-02T10:44:48.411Z,1.92
2023-04-02T10:47:28.794Z,1.92
2023-04-02T10:50:07.766Z,2.30
2023-04-02T10:52:40.586Z,1.80
2023-04-02T10:55:18.069Z,1.88
2023-04-02T10:57:46.931Z,2.20
2023-04-02T11:00:22.308Z,2.42
2023-04-02T11:02:55.434Z,1.90
2023-04-02T11:05:32.257Z,2.00
2023-04-02T11:08:07.890Z,1.98
2023-04-02T11:10:41.284Z,1.95
2023-04-02T11:13:16.421Z,1.85
2023-04-02T11:15:44.267Z,1.80
2023-04-02T11:18:24.612Z,2.30
2023-04-02T11:21:05.383Z,2.63
2023-04-02T11:23:40.618Z,1.52
2023-04-02T11:26:37.112Z,2.00
2023-04-02T11:29:27.958Z,2.40
2023-04-02T11:32:24.293Z,2.30
2023-04-02T11:35:06.547Z,2.72
2023-04-02T11:37:38.253Z,1.90
2023-04-02T11:40:53.015Z,2.13
2023-04-02T11:44:00.389Z,1.73
2023-04-02T11:46:46.662Z,2.30
2023-04-02T11:49:37.614Z,2.10
2023-04-02T11:52:19.849Z,2.28
2023-04-02T11:54:55.780Z,2.17
2023-04-02T11:57:34.090Z,2.20
2023-04-02T12:00:20.122Z,2.15
2023-04-02T12:03:03.403Z,2.85
2023-04-02T12:05:37.615Z,2.40
2023-04-02T12:08:22.610Z,2.00
2023-04-02T12:10:55.770Z,2.23
2023-04-02T12:13:49.911Z,2.67
2023-04-02T12:16:19.917Z,2.17
2023-04-02T12:18:51.245Z,3.00
2023-04-02T12:21:20.477Z,2.72
2023-04-02T12:23:49.933Z,3.45
2023-04-02T12:26:31.870Z,4.43
2023-04-02T12:29:33.245Z,3.72
2023-04-02T12:32:03.950Z,3.60
2023-04-02T12:34:32.174Z,3.55
2023-04-02T12:37:02.704Z,2.95
2023-04-02T12:39:33.052Z,4.95
2023-04-02T12:42:01.356Z,2.45
2023-04-02T12:44:31.484Z,2.17
2023-04-02T12:47:00.504Z,2.70
2023-04-02T12:49:41.099Z,2.83
2023-04-02T12:52:11.140Z,2.72
2023-04-02T12:54:46.838Z,2.65
2023-04-02T12:57:23.128Z,3.00
2023-04-02T12:59:51.319Z,2.50
2023-04-02T13:02:21.074Z,2.72
2023-04-02T13:04:52.256Z,2.22
2023-04-02T13:07:31.278Z,2.38
2023-04-02T13:10:01.227Z,2.83
2023-04-02T13:12:33.650Z,1.98
2023-04-02T13:15:03.601Z,3.67
2023-04-02T13:17:43.178Z,2.58
2023-04-02T13:20:32.934Z,2.20
2023-04-02T13:23:02.331Z,3.65
2023-04-02T13:25:32.211Z,3.13
2023-04-02T13:28:00.244Z,2.75
2023-04-02T13:30:29.940Z,2.40
2023-04-02T13:32:57.761Z,2.40
2023-04-02T13:35:26.546Z,2.30
2023-04-02T13:37:55.829Z,2.20
2023-04-02T13:40:23.655Z,1.80
2023-04-02T13:42:51.906Z,2.20
2023-04-02T13:45:24.287Z,2.08
2023-04-02T13:47:52.285Z,2.70
2023-04-02T13:50:22.280Z,3.22
2023-04-02T13:52:51.600Z,1.80
2023-04-02T13:55:26.397Z,2.47
2023-04-02T13:57:54.367Z,2.22
2023-04-02T14:00:22.455Z,2.40
2023-04-02T14:02:55.198Z,2.83
2023-04-02T14:05:33.664Z,2.45
2023-04-02T14:08:09.080Z,2.22
2023-04-02T14:13:41.246Z,2.40
2023-04-02T14:16:23.987Z,2.22
2023-04-02T14:19:04.348Z,2.22
2023-04-02T14:21:41.292Z,1.98
2023-04-02T14:24:18.426Z,1.83
2023-04-02T14:27:16.171Z,2.30
2023-04-02T14:29:49.151Z,2.03
2023-04-02T14:32:24.888Z,1.92
2023-04-02T14:34:59.691Z,2.15
2023-04-02T14:37:35.837Z,2.33
2023-04-02T14:40:13.388Z,2.33
2023-04-02T14:42:47.683Z,2.42
2023-04-02T14:45:25.641Z,3.03
2023-04-02T14:47:58.418Z,2.25
2023-04-02T14:50:33.010Z,2.50
2023-04-02T14:53:08.264Z,2.20
2023-04-02T14:58:17.232Z,2.78
2023-04-02T15:00:51.730Z,2.38
2023-04-02T15:03:24.169Z,2.43
2023-04-02T15:05:56.844Z,3.05
2023-04-02T15:08:27.679Z,2.30
2023-04-02T15:11:03.458Z,2.53
2023-04-02T15:13:38.271Z,2.28
2023-04-02T15:16:11.709Z,1.88
2023-04-02T15:18:39.674Z,1.90
2023-04-02T15:21:25.515Z,1.95
2023-04-02T15:24:01.607Z,1.75
2023-04-02T15:26:36.946Z,2.00
2023-04-02T15:31:50.915Z,2.25
2023-04-02T15:34:26.495Z,2.13
2023-04-02T15:37:08.517Z,2.50
2023-04-02T15:39:52.824Z,1.98
2023-04-02T15:42:24.521Z,2.38
2023-04-02T15:45:21.197Z,1.90
2023-04-02T15:48:16.559Z,1.80
2023-04-02T15:50:55.257Z,3.63
2023-04-02T15:53:43.610Z,2.10
2023-04-02T15:56:40.821Z,1.92
2023-04-02T15:59:31.544Z,2.97
2023-04-02T16:02:13.890Z,2.15
2023-04-02T16:04:55.815Z,2.42
2023-04-02T16:07:49.889Z,2.55
2023-04-02T16:10:37.802Z,2.60
2023-04-02T16:13:17.074Z,2.45
2023-04-02T16:15:50.907Z,2.53
2023-04-02T16:18:31.128Z,2.75
2023-04-02T16:21:02.492Z,2.70
2023-04-02T16:23:35.367Z,2.83
2023-04-02T16:26:13.412Z,3.28
2023-04-02T16:28:51.875Z,4.05
2023-04-02T16:31:25.885Z,3.35
2023-04-02T16:34:02.587Z,2.72
2023-04-02T16:36:46.407Z,3.90
2023-04-02T16:39:24.342Z,3.50
2023-04-02T16:41:59.417Z,3.00
2023-04-02T16:44:36.497Z,2.83
2023-04-02T16:47:15.411Z,8.77
2023-04-02T16:49:51.730Z,5.20
2023-04-02T16:52:30.789Z,3.72
2023-04-02T16:55:15.994Z,4.93
2023-04-02T16:57:55.456Z,4.50
2023-04-02T17:00:30.620Z,4.30
2023-04-02T17:03:11.126Z,3.50
2023-04-02T17:05:52.947Z,3.63
2023-04-02T17:08:24.972Z,3.33
2023-04-02T17:10:57.908Z,4.50
2023-04-02T17:13:30.734Z,3.55
2023-04-02T17:16:07.317Z,2.88
2023-04-02T17:18:35.791Z,3.10
2023-04-02T17:21:08.400Z,4.38
2023-04-02T17:23:55.710Z,3.65
2023-04-02T17:26:28.140Z,4.90
2023-04-02T17:28:58.334Z,4.47
2023-04-02T17:31:30.610Z,4.05
2023-04-02T17:33:58.627Z,3.15
2023-04-02T17:36:42.648Z,2.60
2023-04-02T17:39:20.810Z,3.90
2023-04-02T17:41:54.149Z,3.63
2023-04-02T17:44:45.568Z,3.20
2023-04-02T17:47:20.408Z,2.47
2023-04-02T17:49:59.336Z,3.38
2023-04-02T17:52:34.774Z,4.32
2023-04-02T17:55:15.256Z,3.33
2023-04-02T17:57:55.010Z,2.70
2023-04-02T18:00:48.012Z,2.42
2023-04-02T18:03:49.391Z,2.80
2023-04-02T18:06:20.985Z,2.72
2023-04-02T18:09:04.214Z,3.10
2023-04-02T18:11:41.128Z,2.85
2023-04-02T18:14:25.223Z,3.75
2023-04-02T18:17:00.028Z,3.72
2023-04-02T18:19:36.418Z,3.42
2023-04-02T18:22:17.353Z,3.00
2023-04-02T18:25:05.286Z,3.08
2023-04-02T18:27:50.310Z,3.08
2023-04-02T18:30:27.605Z,2.92
2023-04-02T18:33:15.981Z,2.72
2023-04-02T18:35:51.877Z,3.53
2023-04-02T18:38:27.750Z,2.92
2023-04-02T18:41:08.939Z,3.72
2023-04-02T18:43:52.844Z,3.80
2023-04-02T18:46:28.284Z,3.63
2023-04-02T18:48:59.129Z,4.03
2023-04-02T18:51:29.504Z,4.30
2023-04-02T18:54:06.287Z,4.22
2023-04-02T18:56:38.673Z,4.40
2023-04-02T18:59:32.143Z,3.95
2023-04-02T19:02:06.808Z,3.47
2023-04-02T19:04:36.839Z,4.18
2023-04-02T19:07:09.974Z,3.40
2023-04-02T19:09:40.584Z,3.83
2023-04-02T19:12:16.411Z,4.05
2023-04-02T19:14:44.178Z,3.90
2023-04-02T19:17:20.877Z,2.97
2023-04-02T19:20:03.523Z,4.97
2023-04-02T19:22:42.845Z,4.68
2023-04-02T19:25:31.095Z,4.05
2023-04-02T19:28:09.070Z,4.20
2023-04-02T19:30:53.516Z,5.00
2023-04-02T19:33:37.625Z,4.68
2023-04-02T19:36:16.293Z,4.40
2023-04-02T19:38:57.057Z,3.85
2023-04-02T19:41:30.500Z,3.90
2023-04-02T19:44:00.125Z,4.03
2023-04-02T19:46:28.216Z,3.92
2023-04-02T19:49:03.174Z,3.33
2023-04-02T19:51:31.159Z,3.50
2023-04-02T19:53:58.965Z,3.67
2023-04-02T19:56:26.876Z,11.02
2023-04-02T19:58:56.608Z,5.05
2023-04-02T20:01:26.111Z,3.63
2023-04-02T20:03:53.998Z,3.30
2023-04-02T20:06:22.370Z,2.97
2023-04-02T20:08:50.343Z,3.65
2023-04-02T20:11:18.302Z,3.50
2023-04-02T20:13:46.250Z,4.07
2023-04-02T20:16:14.506Z,3.85
2023-04-02T20:18:43.932Z,3.97
2023-04-02T20:21:11.724Z,3.67
2023-04-02T20:23:39.592Z,4.05
2023-04-02T20:26:07.979Z,5.15
2023-04-02T20:28:36.077Z,5.53
2023-04-02T20:31:08.684Z,5.97
2023-04-02T20:33:36.790Z,5.72
2023-04-02T20:36:08.300Z,4.93
2023-04-02T20:38:37.524Z,6.15
2023-04-02T20:41:07.246Z,5.00
2023-04-02T20:43:35.963Z,5.07
2023-04-02T20:46:08.347Z,5.30
2023-04-02T20:48:39.147Z,5.38
2023-04-02T20:51:10.016Z,4.53
2023-04-02T20:53:39.116Z,4.25
2023-04-02T20:56:08.274Z,3.67
2023-04-02T20:58:37.166Z,2.97
2023-04-02T21:01:10.003Z,3.42
2023-04-02T21:03:39.737Z,3.00
2023-04-02T21:06:14.099Z,3.05
2023-04-02T21:08:42.159Z,3.40
2023-04-02T21:11:10.745Z,3.47
2023-04-02T21:13:38.924Z,2.80
2023-04-02T21:16:14.921Z,3.10
2023-04-02T21:18:42.911Z,2.67
2023-04-02T21:21:14.285Z,2.58
2023-04-02T21:23:43.536Z,2.83
2023-04-02T21:26:14.523Z,2.67
2023-04-02T21:28:43.233Z,2.75
2023-04-02T21:31:12.792Z,2.70
2023-04-02T21:33:42.586Z,1.70
2023-04-02T21:36:13.567Z,2.10
2023-04-02T21:38:43.242Z,1.83
2023-04-02T21:41:15.985Z,1.90
2023-04-02T21:43:43.966Z,1.30
2023-04-02T21:46:11.855Z,1.35
2023-04-02T21:48:40.670Z,0.73
2023-04-02T21:51:10.581Z,1.70
2023-04-02T21:53:40.160Z,1.25
2023-04-02T21:56:09.900Z,1.42
2023-04-02T21:58:37.813Z,1.27
2023-04-02T22:01:09.080Z,1.50
2023-04-02T22:03:39.577Z,1.17
2023-04-02T22:06:09.264Z,1.40
2023-04-02T22:08:40.273Z,1.15
2023-04-02T22:11:10.428Z,1.85
2023-04-02T22:13:39.901Z,1.30
2023-04-02T22:16:09.826Z,1.25
2023-04-02T22:18:39.941Z,1.30
2023-04-02T22:21:08.090Z,1.30
2023-04-02T22:23:36.859Z,1.27
2023-04-02T22:26:07.288Z,1.60
2023-04-02T22:28:35.958Z,1.20
2023-04-02T22:31:06.564Z,1.23
2023-04-02T22:33:35.606Z,1.27
2023-04-02T22:36:03.734Z,1.38
2023-04-02T22:38:32.230Z,1.02
2023-04-02T22:41:07.019Z,1.25
2023-04-02T22:43:35.687Z,1.13
2023-04-02T22:46:03.609Z,1.38
2023-04-02T22:48:32.064Z,1.42
2023-04-02T22:51:00.498Z,1.60
2023-04-02T22:53:28.892Z,1.15
2023-04-02T22:55:56.668Z,1.83
2023-04-02T22:58:26.581Z,1.25
2023-04-02T23:00:54.372Z,1.23
2023-04-02T23:03:22.208Z,1.27
2023-04-02T23:05:59.528Z,2.03
2023-04-02T23:08:27.483Z,1.40
2023-04-02T23:11:01.894Z,1.40
2023-04-02T23:13:32.937Z,1.30
2023-04-02T23:16:01.723Z,1.20
2023-04-02T23:18:30.300Z,1.33
2023-04-02T23:20:58.191Z,1.40
2023-04-02T23:23:26.613Z,1.30
2023-04-02T23:26:04.969Z,1.83
2023-04-02T23:28:34.562Z,1.80
2023-04-02T23:31:03.162Z,1.52
2023-04-02T23:33:31.031Z,1.20
2023-04-02T23:35:59.313Z,1.23
2023-04-02T23:38:27.460Z,2.30
2023-04-02T23:40:55.429Z,1.52
2023-04-02T23:43:23.200Z,1.05
2023-04-02T23:45:52.376Z,1.52
2023-04-02T23:48:20.244Z,1.48
2023-04-02T23:50:48.009Z,1.10
2023-04-02T23:53:16.423Z,1.42
2023-04-02T23:55:44.281Z,1.85
2023-04-02T23:58:12.032Z,1.88
